createdAt,value
2022-12-16T00:02:01.619Z,94918.91
2022-12-16T00:04:28.145Z,94906.78
2022-12-16T00:06:54.662Z,94906.63
2022-12-16T00:09:21.380Z,94913.53
2022-12-16T00:11:47.845Z,94911.88
2022-12-16T00:14:14.471Z,94903.59
2022-12-16T00:16:40.989Z,94899.34
2022-12-16T00:19:07.611Z,94888.34
2022-12-16T00:21:34.141Z,94870.84
2022-12-16T00:24:00.699Z,94864.34
2022-12-16T00:26:27.277Z,94868.38
2022-12-16T00:28:53.786Z,94859.81
2022-12-16T00:31:21.429Z,94853.19
2022-12-16T00:33:48.066Z,94838.31
2022-12-16T00:36:14.567Z,94826.03
2022-12-16T00:38:41.103Z,94825.09
2022-12-16T00:41:08.206Z,94834.19
2022-12-16T00:43:35.039Z,94843.84
2022-12-16T00:46:01.786Z,94847.53
2022-12-16T00:48:28.323Z,94859.25
2022-12-16T00:50:55.644Z,94856.06
2022-12-16T00:53:23.298Z,94859.25
2022-12-16T00:55:49.805Z,94873.63
2022-12-16T00:58:17.212Z,94868.53
2022-12-16T01:00:43.832Z,94870.06
2022-12-16T01:03:11.796Z,94871.25
2022-12-16T01:05:39.858Z,94871.94
2022-12-16T01:08:06.353Z,94870.81
2022-12-16T01:10:32.972Z,94858.84
2022-12-16T01:12:59.477Z,94849.34
2022-12-16T01:15:26.018Z,94834.31
2022-12-16T01:17:52.545Z,94836.69
2022-12-16T01:20:19.075Z,94828.13
2022-12-16T01:22:45.641Z,94838.34
2022-12-16T01:25:13.060Z,94838.22
2022-12-16T01:27:40.105Z,94844.41
2022-12-16T01:30:06.902Z,94835.56
2022-12-16T01:32:33.413Z,94814.25
2022-12-16T01:35:00.631Z,94809.00
2022-12-16T01:37:27.111Z,94787.09
2022-12-16T01:39:53.658Z,94794.13
2022-12-16T01:42:21.685Z,94783.50
2022-12-16T01:44:49.428Z,94785.16
2022-12-16T01:47:22.650Z,94785.72
2022-12-16T01:49:54.932Z,94781.03
2022-12-16T01:52:28.169Z,94779.50
2022-12-16T01:55:09.522Z,94776.09
2022-12-16T01:57:48.263Z,94786.00
2022-12-16T02:00:14.913Z,94783.38
2022-12-16T02:02:44.013Z,94785.03
2022-12-16T02:05:23.269Z,94770.56
2022-12-16T02:07:58.523Z,94763.69
2022-12-16T02:10:51.094Z,94755.72
2022-12-16T02:13:36.422Z,94747.72
2022-12-16T02:16:17.155Z,94758.59
2022-12-16T02:18:44.104Z,94782.13
2022-12-16T02:21:15.695Z,94785.59
2022-12-16T02:24:00.264Z,94791.06
2022-12-16T02:26:29.583Z,94782.13
2022-12-16T02:28:59.045Z,94764.81
2022-12-16T02:31:45.666Z,94773.59
2022-12-16T02:34:18.796Z,94781.88
2022-12-16T02:36:51.167Z,94789.28
2022-12-16T02:39:23.153Z,94785.44
2022-12-16T02:41:49.622Z,94764.94
2022-12-16T02:44:17.188Z,94763.41
2022-12-16T02:46:51.255Z,94749.47
2022-12-16T02:49:18.744Z,94761.31
2022-12-16T02:51:45.706Z,94750.03
2022-12-16T02:54:13.094Z,94737.78
2022-12-16T02:56:58.540Z,94720.16
2022-12-16T02:59:34.825Z,94714.38
2022-12-16T03:02:05.380Z,94695.50
2022-12-16T03:04:38.789Z,94696.72
2022-12-16T03:07:08.241Z,94683.09
2022-12-16T03:09:36.825Z,94671.63
2022-12-16T03:12:06.516Z,94651.38
2022-12-16T03:14:34.454Z,94646.69
2022-12-16T03:17:01.893Z,94658.53
2022-12-16T03:19:29.323Z,94669.41
2022-12-16T03:22:00.276Z,94692.97
2022-12-16T03:24:27.220Z,94681.81
2022-12-16T03:27:13.761Z,94670.38
2022-12-16T03:29:40.241Z,94656.75
2022-12-16T03:32:12.963Z,94666.97
2022-12-16T03:34:42.605Z,94678.53
2022-12-16T03:37:11.720Z,94690.66
2022-12-16T03:39:47.081Z,94681.44
2022-12-16T03:42:15.625Z,94674.97
2022-12-16T03:44:46.237Z,94671.66
2022-12-16T03:47:16.988Z,94663.13
2022-12-16T03:49:46.415Z,94664.78
2022-12-16T03:52:12.941Z,94675.09
2022-12-16T03:54:39.691Z,94684.88
2022-12-16T03:57:10.417Z,94675.78
2022-12-16T03:59:39.898Z,94680.91
2022-12-16T04:02:06.512Z,94688.03
2022-12-16T04:04:33.146Z,94698.53
2022-12-16T04:07:18.004Z,94693.41
2022-12-16T04:09:44.607Z,94699.06
2022-12-16T04:12:29.860Z,94685.97
2022-12-16T04:15:14.838Z,94676.47
2022-12-16T04:18:00.100Z,94669.19
2022-12-16T04:20:48.792Z,94665.06
2022-12-16T04:23:34.214Z,94652.91
2022-12-16T04:26:01.228Z,94655.69
2022-12-16T04:28:27.737Z,94648.38
2022-12-16T04:30:54.296Z,94642.19
2022-12-16T04:33:41.462Z,94646.03
2022-12-16T04:36:26.826Z,94642.72
2022-12-16T04:39:11.972Z,94644.66
2022-12-16T04:41:57.093Z,94648.53
2022-12-16T04:44:42.394Z,94648.53
2022-12-16T04:47:27.622Z,94656.22
2022-12-16T04:50:12.524Z,94657.91
2022-12-16T04:52:57.476Z,94666.00
2022-12-16T04:55:42.433Z,94656.66
2022-12-16T04:58:27.306Z,94662.03
2022-12-16T05:01:12.299Z,94649.91
2022-12-16T05:03:57.318Z,94641.34
2022-12-16T05:06:42.251Z,94653.47
2022-12-16T05:09:27.232Z,94647.94
2022-12-16T05:12:12.471Z,94654.44
2022-12-16T05:14:57.389Z,94644.69
2022-12-16T05:17:42.955Z,94645.50
2022-12-16T05:20:28.058Z,94636.41
2022-12-16T05:23:16.296Z,94622.63
2022-12-16T05:26:01.645Z,94616.72
2022-12-16T05:28:46.733Z,94610.13
2022-12-16T05:31:31.885Z,94603.94
2022-12-16T05:34:17.193Z,94606.91
2022-12-16T05:37:02.259Z,94606.91
2022-12-16T05:39:47.218Z,94621.41
2022-12-16T05:42:32.459Z,94630.25
2022-12-16T05:45:17.422Z,94634.47
2022-12-16T05:48:02.392Z,94635.59
2022-12-16T05:50:47.542Z,94633.38
2022-12-16T05:53:32.955Z,94622.38
2022-12-16T05:56:18.279Z,94628.97
2022-12-16T05:59:03.424Z,94634.22
2022-12-16T06:01:48.740Z,94632.84
2022-12-16T06:04:33.747Z,94638.78
2022-12-16T06:07:19.047Z,94651.28
2022-12-16T06:10:04.278Z,94653.78
2022-12-16T06:12:49.099Z,94675.97
2022-12-16T06:15:34.128Z,94681.34
2022-12-16T06:18:19.212Z,94686.88
2022-12-16T06:21:04.331Z,94710.25
2022-12-16T06:23:49.259Z,94709.41
2022-12-16T06:26:34.283Z,94711.06
2022-12-16T06:29:19.327Z,94713.28
2022-12-16T06:32:04.395Z,94708.03
2022-12-16T06:34:49.241Z,94711.91
2022-12-16T06:37:34.488Z,94729.09
2022-12-16T06:40:19.595Z,94748.22
2022-12-16T06:43:04.518Z,94738.63
2022-12-16T06:45:49.743Z,94756.63
2022-12-16T06:48:34.797Z,94757.44
2022-12-16T06:51:19.947Z,94778.53
2022-12-16T06:54:05.131Z,94783.75
2022-12-16T06:56:49.949Z,94793.41
2022-12-16T06:59:35.035Z,94790.91
2022-12-16T07:02:19.886Z,94795.16
2022-12-16T07:05:05.215Z,94795.59
2022-12-16T07:07:50.051Z,94796.28
2022-12-16T07:10:35.226Z,94804.97
2022-12-16T07:13:20.241Z,94801.97
2022-12-16T07:16:05.724Z,94793.41
2022-12-16T07:18:50.636Z,94799.34
2022-12-16T07:21:35.954Z,94792.88
2022-12-16T07:24:21.309Z,94788.47
2022-12-16T07:27:06.294Z,94797.81
2022-12-16T07:29:51.524Z,94801.13
2022-12-16T07:32:37.549Z,94803.50
2022-12-16T07:35:23.056Z,94811.06
2022-12-16T07:38:08.210Z,94813.53
2022-12-16T07:40:53.084Z,94822.63
2022-12-16T07:43:38.395Z,94815.44
2022-12-16T07:46:23.593Z,94812.41
2022-12-16T07:49:08.690Z,94816.00
2022-12-16T07:51:53.646Z,94825.78
2022-12-16T07:54:40.704Z,94819.19
2022-12-16T07:57:25.912Z,94808.31
2022-12-16T08:00:10.682Z,94806.81
2022-12-16T08:02:55.915Z,94808.47
2022-12-16T08:05:40.878Z,94799.22
2022-12-16T08:08:26.263Z,94792.47
2022-12-16T08:11:11.044Z,94796.59
2022-12-16T08:13:56.433Z,94812.16
2022-12-16T08:16:41.786Z,94816.56
2022-12-16T08:19:26.774Z,94819.59
2022-12-16T08:22:12.016Z,94815.03
2022-12-16T08:24:57.155Z,94814.63
2022-12-16T08:27:42.328Z,94818.78
2022-12-16T08:30:27.664Z,94831.59
2022-12-16T08:33:18.958Z,94838.19
2022-12-16T08:36:04.735Z,94837.78
2022-12-16T08:38:49.955Z,94844.53
2022-12-16T08:41:34.945Z,94852.38
2022-12-16T08:44:19.905Z,94855.69
2022-12-16T08:47:04.741Z,94859.56
2022-12-16T08:49:49.693Z,94856.00
2022-12-16T08:52:34.636Z,94849.91
2022-12-16T08:55:22.466Z,94841.91
2022-12-16T08:58:12.222Z,94838.31
2022-12-16T09:01:00.500Z,94840.25
2022-12-16T09:03:50.447Z,94852.66
2022-12-16T09:06:40.419Z,94846.81
2022-12-16T09:09:25.883Z,94850.41
2022-12-16T09:12:11.241Z,94873.84
2022-12-16T09:14:56.273Z,94859.09
2022-12-16T09:17:41.669Z,94867.22
2022-12-16T09:20:27.153Z,94863.59
2022-12-16T09:23:12.368Z,94859.31
2022-12-16T09:25:57.688Z,94857.47
2022-12-16T09:28:42.747Z,94857.72
2022-12-16T09:31:27.668Z,94858.47
2022-12-16T09:34:26.570Z,94855.34
2022-12-16T09:37:11.460Z,94864.19
2022-12-16T09:39:56.567Z,94855.00
2022-12-16T09:42:51.012Z,94860.06
2022-12-16T09:45:39.215Z,94858.41
2022-12-16T09:48:27.084Z,94850.75
2022-12-16T09:51:15.042Z,94844.31
2022-12-16T09:54:02.158Z,94853.38
2022-12-16T09:57:03.089Z,94856.09
2022-12-16T09:59:50.751Z,94841.28
2022-12-16T10:02:37.003Z,94842.25
2022-12-16T10:05:27.642Z,94847.34
2022-12-16T10:08:19.172Z,94850.97
2022-12-16T10:11:14.948Z,94854.72
2022-12-16T10:14:19.458Z,94857.19
2022-12-16T10:17:28.914Z,94847.66
2022-12-16T10:20:26.371Z,94839.88
2022-12-16T10:23:11.524Z,94844.06
2022-12-16T10:25:59.534Z,94841.22
2022-12-16T10:28:44.701Z,94846.34
2022-12-16T10:31:34.892Z,94837.75
2022-12-16T10:34:20.076Z,94852.09
2022-12-16T10:37:11.039Z,94853.84
2022-12-16T10:39:59.973Z,94837.97
2022-12-16T10:42:47.291Z,94833.19
2022-12-16T10:45:44.073Z,94849.25
2022-12-16T10:48:29.655Z,94838.28
2022-12-16T10:51:16.711Z,94843.56
2022-12-16T10:54:03.343Z,94842.50
2022-12-16T10:57:11.500Z,94840.47
2022-12-16T10:59:58.053Z,94843.41
2022-12-16T11:02:44.293Z,94847.31
2022-12-16T11:05:41.520Z,94846.47
2022-12-16T11:08:40.998Z,94861.66
2022-12-16T11:11:33.130Z,94868.31
2022-12-16T11:14:36.948Z,94871.38
2022-12-16T11:17:31.311Z,94858.63
2022-12-16T11:20:31.739Z,94857.44
2022-12-16T11:23:35.369Z,94861.41
2022-12-16T11:26:25.353Z,94867.28
2022-12-16T11:29:28.192Z,94881.22
2022-12-16T11:32:33.708Z,94880.47
2022-12-16T11:35:20.829Z,94875.75
2022-12-16T11:38:06.342Z,94875.34
2022-12-16T11:40:51.930Z,94870.72
2022-12-16T11:43:38.249Z,94871.44
2022-12-16T11:46:32.450Z,94863.16
2022-12-16T11:49:24.777Z,94883.78
2022-12-16T11:52:36.037Z,94890.69
2022-12-16T11:55:35.957Z,94889.03
2022-12-16T11:58:44.466Z,94883.94
2022-12-16T12:02:08.271Z,94894.59
2022-12-16T12:04:53.997Z,94899.00
2022-12-16T12:07:44.568Z,94917.41
2022-12-16T12:10:42.690Z,94914.09
2022-12-16T12:13:46.348Z,94924.41
2022-12-16T12:16:53.957Z,94918.00
2022-12-16T12:20:02.144Z,94920.88
2022-12-16T12:22:50.368Z,94919.69
2022-12-16T12:25:41.753Z,94933.63
2022-12-16T12:28:42.182Z,94928.16
2022-12-16T12:31:41.843Z,94936.19
2022-12-16T12:34:46.248Z,94950.00
2022-12-16T12:37:31.084Z,94958.13
2022-12-16T12:40:27.251Z,94963.00
2022-12-16T12:43:14.200Z,94966.06
2022-12-16T12:46:19.808Z,94973.16
2022-12-16T12:49:10.884Z,94979.38
2022-12-16T12:52:16.248Z,94983.53
2022-12-16T12:55:01.148Z,95001.03
2022-12-16T12:57:47.465Z,95002.31
2022-12-16T13:00:40.634Z,95003.66
2022-12-16T13:03:37.337Z,95001.66
2022-12-16T13:06:22.934Z,95016.34
2022-12-16T13:09:08.160Z,95024.22
2022-12-16T13:11:53.751Z,95040.34
2022-12-16T13:14:48.983Z,95049.22
2022-12-16T13:17:41.269Z,95048.16
2022-12-16T13:21:05.136Z,95051.78
2022-12-16T13:23:54.247Z,95054.81
2022-12-16T13:26:40.781Z,95059.94
2022-12-16T13:29:45.519Z,95066.69
2022-12-16T13:32:30.610Z,95063.97
2022-12-16T13:35:23.541Z,95071.44
2022-12-16T13:38:12.667Z,95074.19
2022-12-16T13:41:16.706Z,95066.44
2022-12-16T13:44:06.644Z,95073.94
2022-12-16T13:46:58.730Z,95067.03
2022-12-16T13:49:56.371Z,95085.28
2022-12-16T13:52:44.581Z,95091.38
2022-12-16T13:55:35.061Z,95088.63
2022-12-16T13:58:26.696Z,95100.81
2022-12-16T14:01:17.769Z,95107.44
2022-12-16T14:04:06.993Z,95117.63
2022-12-16T14:06:53.834Z,95122.50
2022-12-16T14:09:43.462Z,95133.25
2022-12-16T14:12:40.789Z,95125.16
2022-12-16T14:15:34.794Z,95121.56
2022-12-16T14:18:25.462Z,95132.63
2022-12-16T14:21:17.147Z,95140.66
2022-12-16T14:24:06.986Z,95151.16
2022-12-16T14:26:53.642Z,95160.03
2022-12-16T14:29:41.805Z,95163.06
2022-12-16T14:32:56.393Z,95166.53
2022-12-16T14:35:43.329Z,95175.53
2022-12-16T14:38:38.739Z,95181.31
2022-12-16T14:41:23.638Z,95178.84
2022-12-16T14:44:08.823Z,95185.06
2022-12-16T14:46:54.012Z,95197.53
2022-12-16T14:49:39.103Z,95200.69
2022-12-16T14:52:33.979Z,95199.03
2022-12-16T14:55:31.013Z,95209.41
2022-12-16T14:58:28.993Z,95217.69
2022-12-16T15:01:16.401Z,95219.63
2022-12-16T15:04:05.778Z,95220.63
2022-12-16T15:06:55.973Z,95223.09
2022-12-16T15:09:49.072Z,95223.50
2022-12-16T15:12:37.347Z,95226.00
2022-12-16T15:15:25.170Z,95224.19
2022-12-16T15:18:12.234Z,95221.72
2022-12-16T15:21:09.950Z,95219.38
2022-12-16T15:23:58.261Z,95215.38
2022-12-16T15:26:44.650Z,95220.88
2022-12-16T15:30:02.269Z,95226.69
2022-12-16T15:32:48.074Z,95221.56
2022-12-16T15:35:48.560Z,95241.63
2022-12-16T15:38:33.616Z,95236.09
2022-12-16T15:41:22.552Z,95234.00
2022-12-16T15:44:08.079Z,95236.47
2022-12-16T15:46:53.492Z,95239.09
2022-12-16T15:49:41.550Z,95250.56
2022-12-16T15:52:44.837Z,95253.91
2022-12-16T15:55:49.727Z,95261.50
2022-12-16T15:58:39.219Z,95267.44
2022-12-16T16:01:25.677Z,95265.94
2022-12-16T16:04:12.808Z,95266.88
2022-12-16T16:07:00.463Z,95262.06
2022-12-16T16:09:47.920Z,95276.94
2022-12-16T16:12:34.249Z,95278.22
2022-12-16T16:15:19.548Z,95278.22
2022-12-16T16:18:05.925Z,95284.16
2022-12-16T16:20:50.840Z,95292.16
2022-12-16T16:23:36.175Z,95287.16
2022-12-16T16:26:21.446Z,95291.03
2022-12-16T16:29:06.426Z,95298.22
2022-12-16T16:31:51.378Z,95296.56
2022-12-16T16:34:36.400Z,95297.25
2022-12-16T16:37:21.190Z,95306.53
2022-12-16T16:40:06.362Z,95303.06
2022-12-16T16:42:51.240Z,95304.88
2022-12-16T16:45:36.338Z,95304.88
2022-12-16T16:48:31.609Z,95306.91
2022-12-16T16:51:17.664Z,95306.91
2022-12-16T16:54:03.089Z,95309.53
2022-12-16T16:56:49.919Z,95315.63
2022-12-16T16:59:34.939Z,95314.78
2022-12-16T17:02:20.109Z,95310.38
2022-12-16T17:05:05.387Z,95321.44
2022-12-16T17:07:53.782Z,95328.91
2022-12-16T17:10:38.931Z,95329.31
2022-12-16T17:13:24.297Z,95325.28
2022-12-16T17:16:09.297Z,95328.03
2022-12-16T17:18:54.585Z,95331.38
2022-12-16T17:21:39.392Z,95343.53
2022-12-16T17:24:24.618Z,95344.63
2022-12-16T17:27:09.580Z,95349.03
2022-12-16T17:29:54.524Z,95355.25
2022-12-16T17:32:39.441Z,95359.25
2022-12-16T17:35:24.343Z,95364.22
2022-12-16T17:38:09.803Z,95372.53
2022-12-16T17:40:54.695Z,95370.63
2022-12-16T17:43:39.703Z,95376.09
2022-12-16T17:46:26.251Z,95371.41
2022-12-16T17:49:12.214Z,95369.88
2022-12-16T17:51:57.377Z,95363.66
2022-12-16T17:54:42.570Z,95360.19
2022-12-16T17:57:27.470Z,95359.50
2022-12-16T18:00:12.606Z,95358.81
2022-12-16T18:02:58.061Z,95366.81
2022-12-16T18:05:44.825Z,95366.94
2022-12-16T18:08:29.928Z,95365.28
2022-12-16T18:11:16.381Z,95376.88
2022-12-16T18:14:01.879Z,95382.13
2022-12-16T18:16:46.912Z,95383.78
2022-12-16T18:19:32.935Z,95395.38
2022-12-16T18:22:17.770Z,95405.41
2022-12-16T18:25:02.827Z,95401.41
2022-12-16T18:28:02.014Z,95406.22
2022-12-16T18:30:46.776Z,95406.72
2022-12-16T18:33:31.882Z,95410.16
2022-12-16T18:36:17.190Z,95403.09
2022-12-16T18:39:02.246Z,95396.19
2022-12-16T18:41:47.160Z,95391.63
2022-12-16T18:44:32.573Z,95396.75
2022-12-16T18:47:17.949Z,95398.03
2022-12-16T18:50:03.320Z,95398.88
2022-12-16T18:52:48.519Z,95398.41
2022-12-16T18:55:33.701Z,95405.47
2022-12-16T18:58:49.263Z,95407.13
2022-12-16T19:01:26.219Z,95416.09
2022-12-16T19:04:11.243Z,95418.56
2022-12-16T19:06:56.770Z,95421.19
2022-12-16T19:09:41.584Z,95435.53
2022-12-16T19:12:40.689Z,95432.19
2022-12-16T19:15:26.248Z,95430.78
2022-12-16T19:18:11.264Z,95432.19
2022-12-16T19:20:56.793Z,95438.84
2022-12-16T19:23:42.056Z,95438.84
2022-12-16T19:26:27.075Z,95455.09
2022-12-16T19:29:12.376Z,95454.38
2022-12-16T19:31:57.466Z,95460.56
2022-12-16T19:34:42.427Z,95451.63
2022-12-16T19:37:27.560Z,95457.00
2022-12-16T19:40:12.504Z,95454.25
2022-12-16T19:42:57.461Z,95459.63
2022-12-16T19:45:42.526Z,95464.41
2022-12-16T19:48:27.453Z,95471.84
2022-12-16T19:51:19.503Z,95475.16
2022-12-16T19:54:05.064Z,95481.00
2022-12-16T19:56:50.171Z,95480.72
2022-12-16T19:59:40.200Z,95489.31
2022-12-16T20:02:25.950Z,95487.78
2022-12-16T20:05:11.162Z,95490.13
2022-12-16T20:07:56.556Z,95492.03
2022-12-16T20:10:42.000Z,95491.63
2022-12-16T20:13:30.059Z,95496.84
2022-12-16T20:16:41.887Z,95494.22
2022-12-16T20:19:27.005Z,95503.88
2022-12-16T20:22:16.318Z,95504.47
2022-12-16T20:25:01.945Z,95507.78
2022-12-16T20:27:47.221Z,95514.69
2022-12-16T20:30:32.454Z,95510.28
2022-12-16T20:33:17.424Z,95516.38
2022-12-16T20:36:02.809Z,95518.97
2022-12-16T20:38:47.765Z,95512.31
2022-12-16T20:41:32.769Z,95515.09
2022-12-16T20:44:17.890Z,95513.88
2022-12-16T20:47:02.907Z,95505.88
2022-12-16T20:49:47.853Z,95508.09
2022-12-16T20:52:33.048Z,95520.13
2022-12-16T20:55:17.986Z,95520.53
2022-12-16T20:58:02.903Z,95526.03
2022-12-16T21:00:48.270Z,95528.75
2022-12-16T21:03:33.367Z,95535.78
2022-12-16T21:06:22.846Z,95542.13
2022-12-16T21:09:07.810Z,95538.56
2022-12-16T21:11:56.210Z,95536.63
2022-12-16T21:14:41.494Z,95548.09
2022-12-16T21:17:26.606Z,95546.09
2022-12-16T21:20:11.709Z,95543.19
2022-12-16T21:22:56.650Z,95547.41
2022-12-16T21:25:41.674Z,95547.41
2022-12-16T21:28:26.605Z,95550.72
2022-12-16T21:31:11.560Z,95555.75
2022-12-16T21:33:56.481Z,95557.38
2022-12-16T21:36:41.656Z,95568.00
2022-12-16T21:39:26.649Z,95566.31
2022-12-16T21:42:11.615Z,95564.03
2022-12-16T21:44:56.848Z,95569.41
2022-12-16T21:47:41.783Z,95572.63
2022-12-16T21:50:27.578Z,95567.06
2022-12-16T21:53:12.791Z,95568.38
2022-12-16T21:55:57.890Z,95580.41
2022-12-16T21:58:42.779Z,95578.50
2022-12-16T22:01:28.125Z,95567.66
2022-12-16T22:04:13.177Z,95578.13
2022-12-16T22:06:58.049Z,95577.53
2022-12-16T22:09:43.121Z,95584.13
2022-12-16T22:12:28.010Z,95589.09
2022-12-16T22:15:13.174Z,95594.34
2022-12-16T22:17:58.950Z,95592.53
2022-12-16T22:20:44.419Z,95596.59
2022-12-16T22:23:29.654Z,95602.81
2022-12-16T22:26:15.664Z,95600.41
2022-12-16T22:29:00.643Z,95608.66
2022-12-16T22:31:45.692Z,95606.75
2022-12-16T22:34:31.010Z,95599.59
2022-12-16T22:37:15.933Z,95612.44
2022-12-16T22:40:01.174Z,95607.19
2022-12-16T22:42:46.102Z,95608.06
2022-12-16T22:45:31.164Z,95607.06
2022-12-16T22:48:16.340Z,95615.31
2022-12-16T22:51:01.328Z,95606.97
2022-12-16T22:53:46.501Z,95618.66
2022-12-16T22:56:31.773Z,95623.06
2022-12-16T22:59:16.813Z,95614.13
2022-12-16T23:02:01.849Z,95607.94
2022-12-16T23:04:46.951Z,95600.31
2022-12-16T23:07:32.219Z,95605.44
2022-12-16T23:10:17.186Z,95594.09
2022-12-16T23:13:02.325Z,95594.47
2022-12-16T23:15:47.438Z,95589.50
2022-12-16T23:18:32.764Z,95586.88
2022-12-16T23:21:17.720Z,95593.06
2022-12-16T23:24:03.009Z,95586.75
2022-12-16T23:26:48.100Z,95585.28
2022-12-16T23:29:33.261Z,95580.84
2022-12-16T23:32:18.212Z,95577.16
2022-12-16T23:35:03.125Z,95575.63
2022-12-16T23:37:48.179Z,95583.16
2022-12-16T23:40:33.103Z,95584.81
2022-12-16T23:43:18.133Z,95575.75
2022-12-16T23:46:03.419Z,95576.47
2022-12-16T23:48:48.484Z,95569.53
2022-12-16T23:51:33.409Z,95559.06
2022-12-16T23:54:18.418Z,95560.13
2022-12-16T23:57:15.518Z,95573.84
